createdAt,value
2022-11-26T00:01:18.981Z,61.99
2022-11-26T00:03:45.372Z,61.65
2022-11-26T00:06:11.738Z,61.67
2022-11-26T00:08:38.428Z,61.63
2022-11-26T00:11:04.769Z,61.30
2022-11-26T00:13:31.219Z,61.42
2022-11-26T00:15:57.618Z,61.41
2022-11-26T00:18:23.951Z,61.41
2022-11-26T00:20:50.270Z,61.51
2022-11-26T00:23:16.857Z,61.22
2022-11-26T00:25:43.260Z,61.32
2022-11-26T00:28:09.625Z,61.25
2022-11-26T00:30:36.157Z,61.05
2022-11-26T00:33:02.804Z,61.21
2022-11-26T00:35:29.255Z,60.89
2022-11-26T00:37:55.618Z,60.89
2022-11-26T00:40:21.985Z,61.08
2022-11-26T00:42:48.427Z,61.03
2022-11-26T00:45:14.738Z,61.06
2022-11-26T00:47:41.101Z,61.05
2022-11-26T00:50:07.421Z,61.17
2022-11-26T00:52:34.035Z,60.99
2022-11-26T00:55:00.581Z,60.90
2022-11-26T00:57:27.035Z,60.87
2022-11-26T00:59:53.600Z,60.79
2022-11-26T01:02:19.914Z,60.56
2022-11-26T01:04:46.377Z,60.74
2022-11-26T01:07:12.704Z,60.76
2022-11-26T01:09:39.180Z,60.79
2022-11-26T01:12:05.455Z,60.82
2022-11-26T01:14:31.858Z,60.73
2022-11-26T01:16:58.357Z,60.82
2022-11-26T01:19:24.746Z,60.73
2022-11-26T01:21:51.048Z,60.66
2022-11-26T01:24:17.601Z,60.83
2022-11-26T01:26:43.921Z,60.91
2022-11-26T01:29:10.286Z,60.86
2022-11-26T01:31:36.735Z,60.74
2022-11-26T01:34:03.110Z,60.79
2022-11-26T01:36:29.633Z,60.71
2022-11-26T01:38:56.191Z,60.78
2022-11-26T01:41:22.536Z,60.64
2022-11-26T01:43:48.988Z,61.02
2022-11-26T01:46:15.409Z,60.79
2022-11-26T01:48:41.760Z,60.65
2022-11-26T01:51:08.195Z,60.74
2022-11-26T01:53:34.528Z,61.23
2022-11-26T01:56:00.982Z,60.99
2022-11-26T01:58:27.509Z,60.80
2022-11-26T02:00:53.926Z,60.91
2022-11-26T02:03:21.927Z,61.01
2022-11-26T02:05:48.231Z,61.00
2022-11-26T02:08:14.711Z,61.06
2022-11-26T02:10:41.219Z,61.04
2022-11-26T02:13:07.525Z,60.94
2022-11-26T02:15:34.241Z,60.80
2022-11-26T02:18:00.601Z,60.97
2022-11-26T02:20:27.001Z,61.02
2022-11-26T02:22:53.411Z,61.14
2022-11-26T02:25:19.799Z,60.95
2022-11-26T02:27:46.198Z,61.33
2022-11-26T02:30:12.496Z,60.96
2022-11-26T02:32:38.897Z,60.97
2022-11-26T02:35:05.251Z,61.03
2022-11-26T02:37:31.677Z,61.06
2022-11-26T02:39:58.028Z,61.23
2022-11-26T02:42:24.357Z,60.95
2022-11-26T02:44:50.717Z,61.03
2022-11-26T02:47:17.062Z,60.94
2022-11-26T02:49:43.494Z,60.98
2022-11-26T02:52:09.854Z,60.93
2022-11-26T02:54:36.457Z,61.15
2022-11-26T02:57:03.045Z,60.88
2022-11-26T02:59:29.459Z,61.25
2022-11-26T03:01:55.770Z,61.22
2022-11-26T03:04:22.158Z,61.28
2022-11-26T03:06:48.699Z,61.06
2022-11-26T03:09:15.028Z,61.28
2022-11-26T03:11:41.442Z,61.05
2022-11-26T03:14:07.776Z,60.96
2022-11-26T03:16:34.274Z,61.14
2022-11-26T03:19:00.641Z,61.06
2022-11-26T03:21:27.084Z,61.13
2022-11-26T03:23:53.355Z,61.12
2022-11-26T03:26:19.641Z,61.31
2022-11-26T03:28:45.974Z,61.36
2022-11-26T03:31:12.349Z,61.22
2022-11-26T03:33:38.871Z,61.13
2022-11-26T03:36:05.284Z,61.30
2022-11-26T03:38:31.602Z,61.04
2022-11-26T03:40:57.882Z,61.28
2022-11-26T03:43:24.196Z,61.14
2022-11-26T03:45:50.639Z,61.07
2022-11-26T03:48:17.028Z,61.27
2022-11-26T03:50:43.431Z,61.01
2022-11-26T03:53:09.746Z,61.04
2022-11-26T03:55:36.042Z,61.13
2022-11-26T03:58:02.403Z,61.24
2022-11-26T04:00:28.688Z,61.33
2022-11-26T04:02:55.046Z,61.30
2022-11-26T04:05:21.567Z,61.10
2022-11-26T04:07:48.092Z,61.17
2022-11-26T04:10:14.442Z,61.19
2022-11-26T04:12:40.983Z,61.25
2022-11-26T04:15:07.313Z,61.09
2022-11-26T04:17:33.804Z,61.31
2022-11-26T04:20:00.255Z,61.23
2022-11-26T04:22:26.715Z,61.34
2022-11-26T04:24:53.012Z,61.03
2022-11-26T04:27:19.451Z,61.21
2022-11-26T04:29:45.863Z,61.13
2022-11-26T04:32:12.244Z,61.13
2022-11-26T04:34:38.719Z,61.19
2022-11-26T04:37:05.455Z,61.41
2022-11-26T04:39:31.707Z,61.31
2022-11-26T04:41:57.982Z,61.31
2022-11-26T04:44:24.381Z,61.35
2022-11-26T04:46:50.736Z,61.13
2022-11-26T04:49:17.137Z,61.37
2022-11-26T04:51:43.592Z,61.39
2022-11-26T04:54:12.909Z,61.49
2022-11-26T04:56:39.831Z,61.42
2022-11-26T04:59:06.225Z,61.15
2022-11-26T05:01:32.821Z,61.38
2022-11-26T05:03:59.255Z,61.41
2022-11-26T05:06:25.801Z,61.36
2022-11-26T05:08:52.168Z,61.34
2022-11-26T05:11:18.443Z,61.51
2022-11-26T05:13:44.687Z,61.31
2022-11-26T05:16:11.066Z,61.21
2022-11-26T05:18:37.486Z,61.47
2022-11-26T05:21:03.958Z,61.19
2022-11-26T05:23:30.383Z,61.46
2022-11-26T05:25:56.761Z,61.35
2022-11-26T05:28:23.099Z,61.30
2022-11-26T05:30:49.712Z,61.34
2022-11-26T05:33:16.020Z,61.44
2022-11-26T05:35:42.379Z,61.38
2022-11-26T05:38:09.049Z,61.48
2022-11-26T05:40:35.345Z,61.36
2022-11-26T05:43:01.618Z,61.47
2022-11-26T05:45:28.029Z,61.55
2022-11-26T05:47:54.368Z,61.46
2022-11-26T05:50:20.740Z,61.52
2022-11-26T05:52:47.040Z,61.51
2022-11-26T05:55:13.407Z,61.48
2022-11-26T05:57:39.741Z,61.38
2022-11-26T06:00:06.055Z,61.57
2022-11-26T06:02:32.474Z,61.24
2022-11-26T06:04:58.929Z,61.21
2022-11-26T06:07:25.312Z,61.67
2022-11-26T06:09:51.697Z,61.53
2022-11-26T06:12:18.131Z,61.38
2022-11-26T06:14:45.021Z,61.61
2022-11-26T06:17:11.675Z,61.62
2022-11-26T06:19:37.984Z,61.51
2022-11-26T06:22:04.303Z,61.27
2022-11-26T06:24:30.624Z,61.47
2022-11-26T06:26:56.947Z,61.51
2022-11-26T06:29:27.701Z,61.59
2022-11-26T06:31:54.424Z,61.39
2022-11-26T06:34:20.882Z,61.55
2022-11-26T06:36:47.309Z,61.71
2022-11-26T06:39:13.663Z,61.56
2022-11-26T06:41:39.944Z,61.61
2022-11-26T06:44:06.215Z,61.33
2022-11-26T06:46:32.514Z,61.43
2022-11-26T06:48:58.885Z,61.71
2022-11-26T06:51:25.237Z,61.45
2022-11-26T06:53:51.559Z,61.61
2022-11-26T06:56:19.171Z,61.65
2022-11-26T06:58:45.788Z,61.63
2022-11-26T07:01:12.158Z,61.34
2022-11-26T07:03:38.548Z,61.53
2022-11-26T07:06:04.989Z,61.47
2022-11-26T07:08:31.272Z,61.62
2022-11-26T07:10:57.718Z,61.54
2022-11-26T07:13:24.053Z,61.71
2022-11-26T07:15:50.691Z,61.72
2022-11-26T07:18:17.110Z,61.47
2022-11-26T07:20:43.509Z,61.67
2022-11-26T07:23:09.814Z,61.65
2022-11-26T07:25:36.246Z,61.74
2022-11-26T07:28:02.667Z,61.63
2022-11-26T07:30:29.175Z,61.79
2022-11-26T07:32:55.902Z,61.63
2022-11-26T07:35:22.241Z,61.59
2022-11-26T07:37:48.679Z,61.82
2022-11-26T07:40:15.149Z,61.75
2022-11-26T07:42:41.497Z,61.55
2022-11-26T07:45:07.836Z,61.75
2022-11-26T07:47:34.178Z,61.60
2022-11-26T07:50:00.543Z,61.73
2022-11-26T07:52:26.952Z,61.66
2022-11-26T07:54:53.247Z,61.83
2022-11-26T07:57:19.545Z,61.57
2022-11-26T07:59:45.885Z,61.51
2022-11-26T08:02:12.260Z,61.64
2022-11-26T08:04:38.952Z,61.77
2022-11-26T08:07:05.459Z,61.50
2022-11-26T08:09:31.973Z,61.69
2022-11-26T08:11:58.281Z,61.67
2022-11-26T08:14:24.772Z,61.62
2022-11-26T08:16:51.274Z,61.71
2022-11-26T08:19:17.631Z,61.67
2022-11-26T08:21:43.939Z,61.63
2022-11-26T08:24:10.356Z,61.87
2022-11-26T08:26:42.528Z,61.65
2022-11-26T08:29:10.484Z,61.65
2022-11-26T08:31:39.989Z,61.51
2022-11-26T08:34:10.158Z,61.56
2022-11-26T08:36:36.470Z,61.63
2022-11-26T08:39:02.805Z,61.66
2022-11-26T08:41:29.216Z,61.54
2022-11-26T08:44:10.911Z,61.66
2022-11-26T08:46:37.471Z,61.59
2022-11-26T08:49:03.869Z,61.78
2022-11-26T08:51:30.149Z,62.06
2022-11-26T08:53:56.468Z,62.49
2022-11-26T08:56:22.828Z,62.88
2022-11-26T08:58:49.415Z,62.88
2022-11-26T09:01:15.924Z,62.92
2022-11-26T09:03:42.359Z,63.11
2022-11-26T09:06:08.752Z,62.85
2022-11-26T09:08:35.311Z,62.74
2022-11-26T09:11:01.783Z,63.02
2022-11-26T09:13:28.140Z,62.81
2022-11-26T09:15:54.533Z,62.79
2022-11-26T09:18:20.958Z,62.71
2022-11-26T09:20:47.514Z,62.76
2022-11-26T09:23:14.080Z,62.83
2022-11-26T09:25:40.399Z,62.76
2022-11-26T09:28:06.970Z,63.42
2022-11-26T09:30:33.347Z,63.40
2022-11-26T09:32:59.846Z,63.39
2022-11-26T09:35:26.242Z,63.47
2022-11-26T09:37:52.645Z,63.62
2022-11-26T09:40:18.993Z,63.62
2022-11-26T09:42:45.428Z,63.85
2022-11-26T09:45:12.175Z,63.81
2022-11-26T09:47:38.760Z,63.98
2022-11-26T09:50:05.067Z,63.93
2022-11-26T09:52:31.723Z,63.99
2022-11-26T09:54:58.065Z,63.98
2022-11-26T09:57:24.391Z,63.33
2022-11-26T09:59:50.940Z,63.69
2022-11-26T10:02:17.371Z,63.68
2022-11-26T10:04:43.943Z,63.37
2022-11-26T10:07:10.392Z,63.61
2022-11-26T10:09:36.766Z,63.55
2022-11-26T10:12:03.100Z,63.63
2022-11-26T10:14:29.542Z,63.36
2022-11-26T10:16:56.163Z,63.73
2022-11-26T10:19:22.674Z,63.55
2022-11-26T10:22:04.543Z,63.37
2022-11-26T10:24:30.890Z,63.01
2022-11-26T10:26:57.486Z,62.93
2022-11-26T10:29:23.869Z,62.47
2022-11-26T10:31:50.274Z,62.44
2022-11-26T10:34:16.576Z,62.49
2022-11-26T10:36:43.007Z,62.45
2022-11-26T10:39:09.400Z,62.33
2022-11-26T10:41:35.691Z,62.06
2022-11-26T10:44:02.075Z,61.93
2022-11-26T10:46:28.680Z,61.83
2022-11-26T10:48:55.063Z,62.18
2022-11-26T10:51:26.296Z,62.29
2022-11-26T10:53:53.188Z,62.30
2022-11-26T10:56:19.733Z,62.54
2022-11-26T10:58:46.246Z,62.46
2022-11-26T11:01:12.705Z,62.89
2022-11-26T11:04:06.636Z,62.84
2022-11-26T11:06:25.686Z,63.15
2022-11-26T11:08:52.044Z,63.28
2022-11-26T11:11:18.411Z,63.46
2022-11-26T11:13:44.797Z,63.75
2022-11-26T11:16:11.388Z,63.48
2022-11-26T11:18:37.787Z,63.98
2022-11-26T11:21:04.387Z,64.04
2022-11-26T11:24:00.106Z,64.34
2022-11-26T11:26:17.277Z,64.19
2022-11-26T11:28:43.672Z,64.13
2022-11-26T11:31:10.140Z,64.15
2022-11-26T11:33:36.632Z,64.34
2022-11-26T11:36:02.983Z,64.45
2022-11-26T11:38:29.288Z,64.30
2022-11-26T11:40:55.621Z,64.71
2022-11-26T11:43:21.890Z,64.74
2022-11-26T11:45:52.938Z,64.63
2022-11-26T11:48:20.557Z,64.82
2022-11-26T11:50:47.117Z,64.66
2022-11-26T11:53:13.507Z,64.64
2022-11-26T11:55:40.531Z,64.81
2022-11-26T11:58:07.097Z,64.92
2022-11-26T12:00:33.663Z,65.05
2022-11-26T12:03:00.190Z,64.70
2022-11-26T12:05:26.530Z,64.72
2022-11-26T12:07:52.982Z,64.74
2022-11-26T12:10:19.407Z,64.99
2022-11-26T12:12:45.868Z,64.67
2022-11-26T12:15:12.290Z,64.34
2022-11-26T12:17:38.704Z,64.41
2022-11-26T12:20:05.033Z,64.21
2022-11-26T12:22:31.348Z,63.86
2022-11-26T12:24:57.690Z,63.18
2022-11-26T12:27:24.338Z,62.53
2022-11-26T12:29:50.723Z,61.95
2022-11-26T12:32:17.041Z,61.53
2022-11-26T12:34:43.417Z,61.06
2022-11-26T12:37:09.731Z,60.96
2022-11-26T12:39:36.090Z,60.73
2022-11-26T12:42:02.433Z,61.07
2022-11-26T12:44:29.062Z,61.63
2022-11-26T12:46:55.347Z,61.57
2022-11-26T12:49:21.810Z,62.00
2022-11-26T12:51:48.154Z,61.86
2022-11-26T12:54:14.598Z,62.45
2022-11-26T12:56:40.887Z,62.43
2022-11-26T12:59:07.708Z,62.66
2022-11-26T13:01:34.195Z,62.67
2022-11-26T13:04:29.545Z,62.66
2022-11-26T13:06:47.135Z,62.77
2022-11-26T13:09:15.301Z,63.16
2022-11-26T13:11:41.937Z,63.25
2022-11-26T13:14:08.319Z,62.82
2022-11-26T13:16:34.910Z,63.31
2022-11-26T13:19:06.406Z,63.13
2022-11-26T13:21:33.240Z,63.00
2022-11-26T13:23:59.821Z,63.12
2022-11-26T13:26:26.272Z,63.33
2022-11-26T13:28:52.665Z,62.74
2022-11-26T13:31:19.112Z,62.28
2022-11-26T13:33:45.656Z,61.34
2022-11-26T13:36:11.925Z,61.08
2022-11-26T13:38:38.245Z,60.34
2022-11-26T13:41:04.516Z,60.53
2022-11-26T13:43:30.961Z,59.89
2022-11-26T13:45:57.578Z,59.93
2022-11-26T13:48:23.972Z,59.49
2022-11-26T13:50:50.331Z,59.62
2022-11-26T13:53:16.801Z,59.27
2022-11-26T13:55:43.120Z,59.81
2022-11-26T13:58:09.587Z,60.16
2022-11-26T14:00:35.867Z,60.61
2022-11-26T14:03:02.351Z,60.69
2022-11-26T14:05:28.840Z,61.00
2022-11-26T14:07:55.318Z,60.88
2022-11-26T14:10:21.781Z,61.24
2022-11-26T14:12:48.232Z,61.31
2022-11-26T14:15:14.555Z,61.28
2022-11-26T14:17:41.077Z,61.23
2022-11-26T14:20:07.336Z,61.06
2022-11-26T14:22:33.668Z,61.11
2022-11-26T14:25:00.096Z,61.26
2022-11-26T14:27:26.531Z,61.48
2022-11-26T14:29:53.016Z,61.08
2022-11-26T14:32:19.338Z,61.19
2022-11-26T14:34:45.711Z,61.15
2022-11-26T14:37:12.017Z,61.38
2022-11-26T14:39:38.786Z,60.91
2022-11-26T14:42:06.508Z,61.41
2022-11-26T14:44:33.041Z,61.16
2022-11-26T14:46:59.356Z,60.99
2022-11-26T14:49:25.702Z,61.19
2022-11-26T14:51:52.038Z,61.15
2022-11-26T14:54:18.364Z,60.95
2022-11-26T14:56:46.589Z,60.75
2022-11-26T14:59:13.107Z,61.00
2022-11-26T15:01:39.441Z,60.99
2022-11-26T15:04:05.841Z,61.12
2022-11-26T15:06:32.157Z,60.70
2022-11-26T15:08:58.458Z,61.05
2022-11-26T15:11:24.779Z,60.97
2022-11-26T15:13:51.171Z,60.79
2022-11-26T15:16:17.581Z,60.86
2022-11-26T15:18:44.231Z,60.83
2022-11-26T15:21:10.528Z,61.13
2022-11-26T15:23:36.922Z,60.67
2022-11-26T15:26:03.500Z,60.99
2022-11-26T15:28:29.894Z,61.05
2022-11-26T15:30:56.333Z,60.91
2022-11-26T15:33:22.753Z,61.43
2022-11-26T15:35:49.175Z,60.79
2022-11-26T15:38:15.646Z,61.03
2022-11-26T15:40:42.030Z,61.27
2022-11-26T15:43:08.409Z,60.99
2022-11-26T15:45:36.285Z,60.75
2022-11-26T15:48:03.463Z,60.98
2022-11-26T15:50:30.045Z,60.88
2022-11-26T15:52:56.494Z,60.83
2022-11-26T15:55:22.915Z,60.98
2022-11-26T15:57:49.666Z,60.97
2022-11-26T16:00:15.979Z,60.80
2022-11-26T16:02:42.391Z,60.78
2022-11-26T16:05:08.766Z,60.87
2022-11-26T16:07:35.212Z,61.00
2022-11-26T16:10:01.686Z,60.83
2022-11-26T16:12:28.015Z,60.44
2022-11-26T16:14:54.420Z,60.64
2022-11-26T16:17:20.794Z,60.40
2022-11-26T16:19:47.151Z,60.54
2022-11-26T16:22:13.468Z,60.19
2022-11-26T16:24:40.298Z,60.21
2022-11-26T16:27:06.756Z,60.15
2022-11-26T16:29:33.082Z,60.37
2022-11-26T16:31:59.448Z,60.21
2022-11-26T16:34:25.751Z,59.83
2022-11-26T16:36:52.172Z,60.36
2022-11-26T16:39:18.595Z,60.17
2022-11-26T16:41:45.047Z,60.05
2022-11-26T16:44:11.351Z,59.73
2022-11-26T16:46:37.771Z,59.82
2022-11-26T16:49:04.154Z,60.17
2022-11-26T16:51:30.418Z,59.89
2022-11-26T16:53:56.840Z,59.68
2022-11-26T16:56:23.325Z,59.72
2022-11-26T16:58:49.708Z,59.80
2022-11-26T17:01:16.641Z,59.59
2022-11-26T17:03:43.289Z,59.58
2022-11-26T17:06:09.683Z,59.73
2022-11-26T17:08:36.061Z,59.77
2022-11-26T17:11:02.356Z,59.33
2022-11-26T17:13:28.689Z,59.49
2022-11-26T17:15:55.125Z,59.41
2022-11-26T17:18:21.483Z,59.18
2022-11-26T17:20:47.861Z,59.49
2022-11-26T17:23:14.337Z,59.80
2022-11-26T17:25:40.676Z,59.16
2022-11-26T17:28:07.009Z,59.30
2022-11-26T17:30:33.567Z,59.63
2022-11-26T17:33:00.283Z,59.63
2022-11-26T17:35:26.833Z,59.16
2022-11-26T17:37:53.281Z,58.94
2022-11-26T17:40:19.600Z,59.61
2022-11-26T17:42:46.291Z,59.07
2022-11-26T17:45:12.702Z,58.94
2022-11-26T17:47:38.999Z,58.80
2022-11-26T17:50:05.373Z,58.35
2022-11-26T17:52:31.771Z,57.96
2022-11-26T17:54:58.201Z,58.19
2022-11-26T17:57:24.700Z,57.80
2022-11-26T17:59:51.148Z,57.68
2022-11-26T18:02:17.521Z,58.31
2022-11-26T18:04:43.888Z,58.27
2022-11-26T18:07:10.254Z,57.98
2022-11-26T18:09:36.652Z,58.56
2022-11-26T18:12:02.948Z,58.24
2022-11-26T18:14:29.647Z,58.75
2022-11-26T18:16:56.054Z,58.69
2022-11-26T18:19:22.657Z,58.55
2022-11-26T18:21:48.967Z,58.88
2022-11-26T18:24:15.403Z,58.71
2022-11-26T18:26:41.742Z,59.03
2022-11-26T18:29:08.095Z,58.72
2022-11-26T18:31:39.321Z,59.05
2022-11-26T18:34:06.210Z,59.11
2022-11-26T18:36:32.645Z,59.17
2022-11-26T18:38:59.043Z,59.29
2022-11-26T18:41:25.556Z,59.34
2022-11-26T18:43:51.923Z,59.01
2022-11-26T18:46:18.396Z,59.24
2022-11-26T18:48:44.907Z,59.20
2022-11-26T18:51:11.267Z,59.25
2022-11-26T18:53:37.610Z,59.27
2022-11-26T18:56:03.941Z,59.46
2022-11-26T18:58:30.294Z,58.96
2022-11-26T19:00:56.707Z,58.90
2022-11-26T19:03:23.103Z,59.39
2022-11-26T19:05:49.493Z,59.03
2022-11-26T19:08:15.801Z,59.24
2022-11-26T19:10:42.201Z,59.08
2022-11-26T19:13:08.573Z,59.36
2022-11-26T19:15:34.887Z,59.02
2022-11-26T19:18:01.232Z,59.22
2022-11-26T19:20:27.623Z,59.33
2022-11-26T19:22:53.986Z,58.92
2022-11-26T19:25:20.423Z,59.01
2022-11-26T19:27:46.724Z,59.06
2022-11-26T19:30:13.029Z,59.40
2022-11-26T19:32:39.354Z,59.03
2022-11-26T19:35:06.336Z,59.31
2022-11-26T19:37:32.753Z,59.08
2022-11-26T19:39:59.114Z,59.25
2022-11-26T19:42:25.539Z,59.18
2022-11-26T19:44:51.843Z,59.11
2022-11-26T19:47:18.307Z,59.30
2022-11-26T19:49:44.921Z,59.25
2022-11-26T19:52:11.352Z,59.22
2022-11-26T19:54:37.647Z,58.74
2022-11-26T19:57:03.939Z,58.92
2022-11-26T19:59:30.412Z,59.33
2022-11-26T20:01:56.979Z,59.16
2022-11-26T20:04:23.515Z,58.95
2022-11-26T20:06:49.980Z,58.86
2022-11-26T20:09:16.301Z,58.85
2022-11-26T20:11:42.604Z,58.96
2022-11-26T20:14:08.911Z,58.98
2022-11-26T20:16:35.277Z,58.75
2022-11-26T20:19:01.723Z,58.85
2022-11-26T20:21:28.033Z,59.05
2022-11-26T20:23:54.589Z,58.85
2022-11-26T20:26:20.974Z,59.06
2022-11-26T20:28:47.484Z,59.05
2022-11-26T20:31:13.965Z,59.09
2022-11-26T20:33:40.825Z,58.96
2022-11-26T20:36:07.153Z,59.04
2022-11-26T20:38:33.520Z,58.82
2022-11-26T20:41:00.364Z,58.85
2022-11-26T20:43:26.713Z,58.80
2022-11-26T20:45:53.370Z,58.91
2022-11-26T20:48:19.701Z,58.55
2022-11-26T20:50:46.165Z,58.65
2022-11-26T20:53:12.661Z,58.67
2022-11-26T20:55:39.266Z,58.58
2022-11-26T20:58:05.599Z,58.57
2022-11-26T21:00:32.112Z,58.91
2022-11-26T21:02:58.610Z,58.59
2022-11-26T21:05:24.988Z,58.96
2022-11-26T21:07:51.339Z,59.05
2022-11-26T21:10:17.783Z,58.99
2022-11-26T21:12:44.143Z,58.81
2022-11-26T21:15:10.450Z,58.93
2022-11-26T21:17:36.953Z,58.57
2022-11-26T21:20:03.352Z,58.61
2022-11-26T21:22:29.676Z,58.58
2022-11-26T21:24:56.106Z,58.63
2022-11-26T21:27:22.438Z,58.62
2022-11-26T21:29:49.072Z,58.52
2022-11-26T21:32:15.413Z,58.60
2022-11-26T21:34:41.721Z,58.62
2022-11-26T21:37:08.105Z,59.05
2022-11-26T21:39:34.470Z,58.54
2022-11-26T21:42:00.846Z,58.63
2022-11-26T21:44:27.365Z,58.97
2022-11-26T21:46:53.737Z,58.99
2022-11-26T21:49:20.109Z,58.80
2022-11-26T21:51:46.400Z,58.93
2022-11-26T21:54:12.709Z,58.69
2022-11-26T21:56:39.057Z,58.67
2022-11-26T21:59:05.538Z,58.94
2022-11-26T22:01:31.844Z,58.66
2022-11-26T22:03:58.328Z,59.02
2022-11-26T22:06:24.850Z,58.79
2022-11-26T22:08:51.445Z,58.66
2022-11-26T22:11:17.776Z,59.00
2022-11-26T22:13:44.108Z,59.06
2022-11-26T22:16:10.568Z,59.16
2022-11-26T22:18:36.916Z,58.71
2022-11-26T22:21:03.456Z,58.84
2022-11-26T22:23:29.780Z,59.13
2022-11-26T22:25:56.087Z,58.86
2022-11-26T22:28:28.467Z,58.79
2022-11-26T22:30:56.705Z,59.09
2022-11-26T22:33:23.097Z,58.83
2022-11-26T22:35:49.484Z,59.05
2022-11-26T22:38:15.982Z,58.93
2022-11-26T22:40:42.362Z,58.89
2022-11-26T22:43:08.733Z,59.32
2022-11-26T22:45:35.066Z,59.27
2022-11-26T22:48:01.830Z,58.95
2022-11-26T22:50:28.160Z,59.26
2022-11-26T22:52:54.584Z,59.01
2022-11-26T22:55:20.942Z,58.94
2022-11-26T22:57:47.416Z,58.90
2022-11-26T23:00:13.952Z,59.26
2022-11-26T23:02:40.675Z,58.95
2022-11-26T23:05:07.329Z,59.02
2022-11-26T23:07:34.080Z,59.07
2022-11-26T23:10:00.671Z,59.06
2022-11-26T23:12:27.277Z,59.35
2022-11-26T23:14:53.664Z,59.24
2022-11-26T23:17:20.001Z,59.37
2022-11-26T23:19:46.368Z,59.08
2022-11-26T23:22:12.791Z,59.09
2022-11-26T23:24:39.181Z,59.25
2022-11-26T23:27:05.620Z,59.55
2022-11-26T23:29:31.996Z,59.29
2022-11-26T23:31:58.368Z,59.03
2022-11-26T23:34:24.724Z,59.21
2022-11-26T23:36:51.039Z,59.06
2022-11-26T23:39:17.426Z,59.28
2022-11-26T23:41:43.785Z,59.21
2022-11-26T23:44:10.096Z,59.30
2022-11-26T23:46:36.543Z,59.18
2022-11-26T23:49:02.888Z,59.41
2022-11-26T23:51:29.232Z,59.41
2022-11-26T23:53:55.650Z,59.37
2022-11-26T23:56:22.221Z,59.17
2022-11-26T23:58:48.544Z,58.99
